sensor_id;sensor_type;location;lat;lon;timestamp;P1;durP1;ratioP1;P2;durP2;ratioP2
54599;SDS011;40500;51.084;16.958;2023-07-31T00:02:23;3.90;;;1.80;;
54599;SDS011;40500;51.084;16.958;2023-07-31T00:05:24;2.20;;;1.60;;
54599;SDS011;40500;51.084;16.958;2023-07-31T00:08:19;4.80;;;2.00;;
54599;SDS011;40500;51.084;16.958;2023-07-31T00:11:11;6.40;;;1.80;;
54599;SDS011;40500;51.084;16.958;2023-07-31T00:14:02;2.90;;;2.00;;
54599;SDS011;40500;51.084;16.958;2023-07-31T00:16:55;2.40;;;1.70;;
54599;SDS011;40500;51.084;16.958;2023-07-31T00:19:47;2.20;;;1.40;;
54599;SDS011;40500;51.084;16.958;2023-07-31T00:22:19;2.30;;;1.70;;
54599;SDS011;40500;51.084;16.958;2023-07-31T00:24:53;2.80;;;1.70;;
54599;SDS011;40500;51.084;16.958;2023-07-31T00:27:45;3.60;;;1.90;;
54599;SDS011;40500;51.084;16.958;2023-07-31T00:33:14;5.50;;;1.90;;
54599;SDS011;40500;51.084;16.958;2023-07-31T00:35:51;2.80;;;1.30;;
54599;SDS011;40500;51.084;16.958;2023-07-31T00:38:21;3.10;;;1.60;;
54599;SDS011;40500;51.084;16.958;2023-07-31T00:40:53;1.60;;;1.50;;
54599;SDS011;40500;51.084;16.958;2023-07-31T00:43:47;5.50;;;1.50;;
54599;SDS011;40500;51.084;16.958;2023-07-31T00:46:23;3.20;;;1.70;;
54599;SDS011;40500;51.084;16.958;2023-07-31T00:49:10;3.70;;;1.70;;
54599;SDS011;40500;51.084;16.958;2023-07-31T00:51:47;3.60;;;1.40;;
54599;SDS011;40500;51.084;16.958;2023-07-31T00:54:37;3.70;;;1.60;;
54599;SDS011;40500;51.084;16.958;2023-07-31T00:57:33;5.30;;;1.60;;
54599;SDS011;40500;51.084;16.958;2023-07-31T01:00:07;4.80;;;1.50;;
54599;SDS011;40500;51.084;16.958;2023-07-31T01:02:53;3.50;;;1.30;;
54599;SDS011;40500;51.084;16.958;2023-07-31T01:05:25;4.10;;;1.50;;
54599;SDS011;40500;51.084;16.958;2023-07-31T01:08:11;5.00;;;1.30;;
54599;SDS011;40500;51.084;16.958;2023-07-31T01:10:49;1.80;;;1.50;;
54599;SDS011;40500;51.084;16.958;2023-07-31T01:13:27;3.10;;;1.40;;
54599;SDS011;40500;51.084;16.958;2023-07-31T01:16:00;8.00;;;2.30;;
54599;SDS011;40500;51.084;16.958;2023-07-31T01:18:53;4.20;;;1.60;;
54599;SDS011;40500;51.084;16.958;2023-07-31T01:21:36;5.20;;;1.10;;
54599;SDS011;40500;51.084;16.958;2023-07-31T01:24:38;2.80;;;1.40;;
54599;SDS011;40500;51.084;16.958;2023-07-31T01:27:23;2.80;;;1.20;;
54599;SDS011;40500;51.084;16.958;2023-07-31T01:30:22;2.50;;;1.50;;
54599;SDS011;40500;51.084;16.958;2023-07-31T01:33:00;3.30;;;1.40;;
54599;SDS011;40500;51.084;16.958;2023-07-31T01:35:34;4.80;;;1.20;;
54599;SDS011;40500;51.084;16.958;2023-07-31T01:38:27;4.00;;;1.60;;
54599;SDS011;40500;51.084;16.958;2023-07-31T01:41:00;4.50;;;1.60;;
54599;SDS011;40500;51.084;16.958;2023-07-31T01:43:51;4.00;;;1.60;;
54599;SDS011;40500;51.084;16.958;2023-07-31T01:46:22;3.20;;;2.00;;
54599;SDS011;40500;51.084;16.958;2023-07-31T01:49:13;5.60;;;1.60;;
54599;SDS011;40500;51.084;16.958;2023-07-31T01:51:43;5.40;;;1.80;;
54599;SDS011;40500;51.084;16.958;2023-07-31T01:54:31;4.40;;;1.40;;
54599;SDS011;40500;51.084;16.958;2023-07-31T01:57:04;3.70;;;1.30;;
54599;SDS011;40500;51.084;16.958;2023-07-31T01:59:39;5.50;;;1.40;;
54599;SDS011;40500;51.084;16.958;2023-07-31T02:02:13;4.50;;;1.80;;
54599;SDS011;40500;51.084;16.958;2023-07-31T02:05:19;2.80;;;1.60;;
54599;SDS011;40500;51.084;16.958;2023-07-31T02:08:12;2.10;;;1.50;;
54599;SDS011;40500;51.084;16.958;2023-07-31T02:10:45;4.90;;;1.70;;
54599;SDS011;40500;51.084;16.958;2023-07-31T02:13:16;4.10;;;1.80;;
54599;SDS011;40500;51.084;16.958;2023-07-31T02:15:49;5.50;;;1.50;;
54599;SDS011;40500;51.084;16.958;2023-07-31T02:18:22;5.80;;;1.30;;
54599;SDS011;40500;51.084;16.958;2023-07-31T02:20:55;3.50;;;1.50;;
54599;SDS011;40500;51.084;16.958;2023-07-31T02:23:36;3.20;;;1.50;;
54599;SDS011;40500;51.084;16.958;2023-07-31T02:26:07;2.40;;;1.50;;
54599;SDS011;40500;51.084;16.958;2023-07-31T02:28:40;2.70;;;1.70;;
54599;SDS011;40500;51.084;16.958;2023-07-31T02:31:13;6.30;;;1.30;;
54599;SDS011;40500;51.084;16.958;2023-07-31T02:33:47;6.00;;;1.50;;
54599;SDS011;40500;51.084;16.958;2023-07-31T02:36:42;2.80;;;1.70;;
54599;SDS011;40500;51.084;16.958;2023-07-31T02:39:13;4.50;;;1.40;;
54599;SDS011;40500;51.084;16.958;2023-07-31T02:41:45;5.00;;;1.60;;
54599;SDS011;40500;51.084;16.958;2023-07-31T02:44:38;5.50;;;2.00;;
54599;SDS011;40500;51.084;16.958;2023-07-31T02:47:13;1.70;;;1.40;;
54599;SDS011;40500;51.084;16.958;2023-07-31T02:49:59;5.10;;;2.00;;
54599;SDS011;40500;51.084;16.958;2023-07-31T02:52:49;3.90;;;1.60;;
54599;SDS011;40500;51.084;16.958;2023-07-31T02:55:29;2.80;;;1.50;;
54599;SDS011;40500;51.084;16.958;2023-07-31T02:58:00;5.50;;;1.60;;
54599;SDS011;40500;51.084;16.958;2023-07-31T03:00:33;4.60;;;1.60;;
54599;SDS011;40500;51.084;16.958;2023-07-31T03:03:25;4.50;;;1.40;;
54599;SDS011;40500;51.084;16.958;2023-07-31T03:05:57;3.30;;;1.60;;
54599;SDS011;40500;51.084;16.958;2023-07-31T03:08:31;4.20;;;1.70;;
54599;SDS011;40500;51.084;16.958;2023-07-31T03:11:23;1.80;;;1.50;;
54599;SDS011;40500;51.084;16.958;2023-07-31T03:13:56;3.50;;;1.40;;
54599;SDS011;40500;51.084;16.958;2023-07-31T03:16:48;5.20;;;1.50;;
54599;SDS011;40500;51.084;16.958;2023-07-31T03:19:23;5.40;;;1.40;;
54599;SDS011;40500;51.084;16.958;2023-07-31T03:21:54;4.10;;;1.80;;
54599;SDS011;40500;51.084;16.958;2023-07-31T03:24:36;4.20;;;1.50;;
54599;SDS011;40500;51.084;16.958;2023-07-31T03:27:23;3.80;;;1.40;;
54599;SDS011;40500;51.084;16.958;2023-07-31T03:30:16;5.20;;;1.90;;
54599;SDS011;40500;51.084;16.958;2023-07-31T03:32:51;2.80;;;1.50;;
54599;SDS011;40500;51.084;16.958;2023-07-31T03:35:22;5.50;;;1.60;;
54599;SDS011;40500;51.084;16.958;2023-07-31T03:37:56;4.00;;;1.60;;
54599;SDS011;40500;51.084;16.958;2023-07-31T03:40:29;2.60;;;1.30;;
54599;SDS011;40500;51.084;16.958;2023-07-31T03:43:02;4.30;;;1.50;;
54599;SDS011;40500;51.084;16.958;2023-07-31T03:45:33;5.30;;;1.50;;
54599;SDS011;40500;51.084;16.958;2023-07-31T03:48:06;4.90;;;1.40;;
54599;SDS011;40500;51.084;16.958;2023-07-31T03:50:38;4.30;;;1.40;;
54599;SDS011;40500;51.084;16.958;2023-07-31T03:53:28;4.90;;;1.60;;
54599;SDS011;40500;51.084;16.958;2023-07-31T03:56:29;7.20;;;1.80;;
54599;SDS011;40500;51.084;16.958;2023-07-31T03:59:03;8.30;;;2.00;;
54599;SDS011;40500;51.084;16.958;2023-07-31T04:01:37;8.40;;;2.30;;
54599;SDS011;40500;51.084;16.958;2023-07-31T04:04:17;2.70;;;1.40;;
54599;SDS011;40500;51.084;16.958;2023-07-31T04:07:14;2.30;;;1.60;;
54599;SDS011;40500;51.084;16.958;2023-07-31T04:09:46;7.40;;;1.70;;
54599;SDS011;40500;51.084;16.958;2023-07-31T04:12:22;4.10;;;1.40;;
54599;SDS011;40500;51.084;16.958;2023-07-31T04:15:15;9.80;;;1.80;;
54599;SDS011;40500;51.084;16.958;2023-07-31T04:17:50;6.20;;;1.90;;
54599;SDS011;40500;51.084;16.958;2023-07-31T04:20:30;4.40;;;1.70;;
54599;SDS011;40500;51.084;16.958;2023-07-31T04:23:21;3.80;;;1.80;;
54599;SDS011;40500;51.084;16.958;2023-07-31T04:25:52;2.70;;;1.80;;
54599;SDS011;40500;51.084;16.958;2023-07-31T04:28:42;5.10;;;1.50;;
54599;SDS011;40500;51.084;16.958;2023-07-31T04:31:17;3.50;;;1.90;;
54599;SDS011;40500;51.084;16.958;2023-07-31T04:34:08;2.60;;;1.70;;
54599;SDS011;40500;51.084;16.958;2023-07-31T04:36:39;3.70;;;1.70;;
54599;SDS011;40500;51.084;16.958;2023-07-31T04:39:10;5.80;;;2.00;;
54599;SDS011;40500;51.084;16.958;2023-07-31T04:41:42;10.00;;;2.00;;
54599;SDS011;40500;51.084;16.958;2023-07-31T04:44:13;3.40;;;2.20;;
54599;SDS011;40500;51.084;16.958;2023-07-31T04:46:46;5.60;;;2.60;;
54599;SDS011;40500;51.084;16.958;2023-07-31T04:49:23;2.60;;;1.90;;
54599;SDS011;40500;51.084;16.958;2023-07-31T04:52:17;8.50;;;2.60;;
54599;SDS011;40500;51.084;16.958;2023-07-31T04:55:09;3.20;;;2.10;;
54599;SDS011;40500;51.084;16.958;2023-07-31T04:57:44;7.40;;;2.40;;
54599;SDS011;40500;51.084;16.958;2023-07-31T05:00:17;2.70;;;2.20;;
54599;SDS011;40500;51.084;16.958;2023-07-31T05:02:50;8.70;;;2.50;;
54599;SDS011;40500;51.084;16.958;2023-07-31T05:05:24;5.20;;;2.10;;
54599;SDS011;40500;51.084;16.958;2023-07-31T05:07:55;3.60;;;1.80;;
54599;SDS011;40500;51.084;16.958;2023-07-31T05:10:46;1.70;;;1.40;;
54599;SDS011;40500;51.084;16.958;2023-07-31T05:13:43;4.30;;;1.70;;
54599;SDS011;40500;51.084;16.958;2023-07-31T05:16:23;3.50;;;1.40;;
54599;SDS011;40500;51.084;16.958;2023-07-31T05:19:13;3.40;;;1.70;;
54599;SDS011;40500;51.084;16.958;2023-07-31T05:22:14;5.10;;;1.40;;
54599;SDS011;40500;51.084;16.958;2023-07-31T05:24:52;3.50;;;1.60;;
54599;SDS011;40500;51.084;16.958;2023-07-31T05:27:27;4.40;;;1.50;;
54599;SDS011;40500;51.084;16.958;2023-07-31T05:30:00;1.60;;;1.30;;
54599;SDS011;40500;51.084;16.958;2023-07-31T05:32:34;2.30;;;1.20;;
54599;SDS011;40500;51.084;16.958;2023-07-31T05:35:07;3.60;;;1.40;;
54599;SDS011;40500;51.084;16.958;2023-07-31T05:37:38;3.10;;;1.20;;
54599;SDS011;40500;51.084;16.958;2023-07-31T05:40:09;3.40;;;1.50;;
54599;SDS011;40500;51.084;16.958;2023-07-31T05:42:46;2.50;;;1.30;;
54599;SDS011;40500;51.084;16.958;2023-07-31T05:45:18;2.60;;;1.10;;
54599;SDS011;40500;51.084;16.958;2023-07-31T05:47:57;4.50;;;1.20;;
54599;SDS011;40500;51.084;16.958;2023-07-31T05:50:34;1.70;;;1.20;;
54599;SDS011;40500;51.084;16.958;2023-07-31T05:53:09;2.60;;;1.30;;
54599;SDS011;40500;51.084;16.958;2023-07-31T05:55:44;2.50;;;1.20;;
54599;SDS011;40500;51.084;16.958;2023-07-31T05:58:15;3.30;;;1.30;;
54599;SDS011;40500;51.084;16.958;2023-07-31T06:00:45;4.40;;;1.20;;
54599;SDS011;40500;51.084;16.958;2023-07-31T06:03:17;5.10;;;1.40;;
54599;SDS011;40500;51.084;16.958;2023-07-31T06:05:49;4.50;;;1.20;;
54599;SDS011;40500;51.084;16.958;2023-07-31T06:08:20;5.80;;;1.30;;
54599;SDS011;40500;51.084;16.958;2023-07-31T06:10:51;2.20;;;1.50;;
54599;SDS011;40500;51.084;16.958;2023-07-31T06:13:24;2.10;;;1.00;;
54599;SDS011;40500;51.084;16.958;2023-07-31T06:15:56;2.50;;;1.00;;
54599;SDS011;40500;51.084;16.958;2023-07-31T06:18:27;2.00;;;0.80;;
54599;SDS011;40500;51.084;16.958;2023-07-31T06:20:58;3.60;;;1.20;;
54599;SDS011;40500;51.084;16.958;2023-07-31T06:23:29;5.40;;;1.50;;
54599;SDS011;40500;51.084;16.958;2023-07-31T06:26:00;11.60;;;1.70;;
54599;SDS011;40500;51.084;16.958;2023-07-31T06:28:30;6.70;;;2.00;;
54599;SDS011;40500;51.084;16.958;2023-07-31T06:31:01;5.20;;;1.50;;
54599;SDS011;40500;51.084;16.958;2023-07-31T06:33:35;3.30;;;1.10;;
54599;SDS011;40500;51.084;16.958;2023-07-31T06:36:05;8.20;;;1.70;;
54599;SDS011;40500;51.084;16.958;2023-07-31T06:38:36;3.60;;;1.30;;
54599;SDS011;40500;51.084;16.958;2023-07-31T06:41:07;3.70;;;0.90;;
54599;SDS011;40500;51.084;16.958;2023-07-31T06:43:39;7.90;;;1.30;;
54599;SDS011;40500;51.084;16.958;2023-07-31T06:46:09;4.00;;;1.50;;
54599;SDS011;40500;51.084;16.958;2023-07-31T06:48:40;6.00;;;1.70;;
54599;SDS011;40500;51.084;16.958;2023-07-31T06:51:14;3.60;;;1.10;;
54599;SDS011;40500;51.084;16.958;2023-07-31T06:53:49;5.40;;;1.50;;
54599;SDS011;40500;51.084;16.958;2023-07-31T06:56:20;3.50;;;1.40;;
54599;SDS011;40500;51.084;16.958;2023-07-31T06:58:51;6.20;;;1.40;;
54599;SDS011;40500;51.084;16.958;2023-07-31T07:01:27;4.60;;;1.60;;
54599;SDS011;40500;51.084;16.958;2023-07-31T07:06:38;3.00;;;1.20;;
54599;SDS011;40500;51.084;16.958;2023-07-31T07:09:10;4.10;;;1.30;;
54599;SDS011;40500;51.084;16.958;2023-07-31T07:11:40;1.90;;;1.20;;
54599;SDS011;40500;51.084;16.958;2023-07-31T07:14:11;1.90;;;0.90;;
54599;SDS011;40500;51.084;16.958;2023-07-31T07:16:41;3.20;;;1.30;;
54599;SDS011;40500;51.084;16.958;2023-07-31T07:19:14;2.60;;;1.20;;
54599;SDS011;40500;51.084;16.958;2023-07-31T07:21:51;2.60;;;1.00;;
54599;SDS011;40500;51.084;16.958;2023-07-31T07:24:22;7.50;;;1.10;;
54599;SDS011;40500;51.084;16.958;2023-07-31T07:26:56;3.80;;;1.10;;
54599;SDS011;40500;51.084;16.958;2023-07-31T07:29:27;4.10;;;1.10;;
54599;SDS011;40500;51.084;16.958;2023-07-31T07:31:57;2.00;;;1.10;;
54599;SDS011;40500;51.084;16.958;2023-07-31T07:34:28;2.90;;;1.30;;
54599;SDS011;40500;51.084;16.958;2023-07-31T07:36:58;3.60;;;1.10;;
54599;SDS011;40500;51.084;16.958;2023-07-31T07:39:29;5.80;;;1.30;;
54599;SDS011;40500;51.084;16.958;2023-07-31T07:42:03;4.90;;;1.30;;
54599;SDS011;40500;51.084;16.958;2023-07-31T07:44:37;4.20;;;1.30;;
54599;SDS011;40500;51.084;16.958;2023-07-31T07:47:09;1.50;;;1.00;;
54599;SDS011;40500;51.084;16.958;2023-07-31T07:49:40;1.80;;;1.00;;
54599;SDS011;40500;51.084;16.958;2023-07-31T07:52:17;1.30;;;1.00;;
54599;SDS011;40500;51.084;16.958;2023-07-31T07:54:48;3.50;;;1.00;;
54599;SDS011;40500;51.084;16.958;2023-07-31T07:57:19;6.80;;;1.10;;
54599;SDS011;40500;51.084;16.958;2023-07-31T07:59:52;5.00;;;1.20;;
54599;SDS011;40500;51.084;16.958;2023-07-31T08:02:23;0.90;;;0.70;;
54599;SDS011;40500;51.084;16.958;2023-07-31T08:04:53;1.80;;;0.90;;
54599;SDS011;40500;51.084;16.958;2023-07-31T08:07:24;2.30;;;1.10;;
54599;SDS011;40500;51.084;16.958;2023-07-31T08:09:58;2.50;;;0.80;;
54599;SDS011;40500;51.084;16.958;2023-07-31T08:12:33;2.10;;;0.90;;
54599;SDS011;40500;51.084;16.958;2023-07-31T08:15:19;2.20;;;0.90;;
54599;SDS011;40500;51.084;16.958;2023-07-31T08:18:02;3.60;;;1.00;;
54599;SDS011;40500;51.084;16.958;2023-07-31T08:20:43;6.60;;;1.10;;
54599;SDS011;40500;51.084;16.958;2023-07-31T08:23:14;1.90;;;0.80;;
54599;SDS011;40500;51.084;16.958;2023-07-31T08:25:44;4.00;;;0.90;;
54599;SDS011;40500;51.084;16.958;2023-07-31T08:28:17;3.00;;;0.90;;
54599;SDS011;40500;51.084;16.958;2023-07-31T08:30:48;2.30;;;0.80;;
54599;SDS011;40500;51.084;16.958;2023-07-31T08:33:19;6.80;;;1.10;;
54599;SDS011;40500;51.084;16.958;2023-07-31T08:35:52;1.00;;;0.70;;
54599;SDS011;40500;51.084;16.958;2023-07-31T08:38:23;1.50;;;1.10;;
54599;SDS011;40500;51.084;16.958;2023-07-31T08:40:57;2.10;;;0.90;;
54599;SDS011;40500;51.084;16.958;2023-07-31T08:43:28;1.40;;;0.70;;
54599;SDS011;40500;51.084;16.958;2023-07-31T08:46:01;2.20;;;0.80;;
54599;SDS011;40500;51.084;16.958;2023-07-31T08:48:34;2.70;;;1.10;;
54599;SDS011;40500;51.084;16.958;2023-07-31T08:51:06;1.50;;;0.90;;
54599;SDS011;40500;51.084;16.958;2023-07-31T08:53:37;7.60;;;1.20;;
54599;SDS011;40500;51.084;16.958;2023-07-31T08:56:07;4.40;;;1.20;;
54599;SDS011;40500;51.084;16.958;2023-07-31T08:58:44;4.30;;;1.70;;
54599;SDS011;40500;51.084;16.958;2023-07-31T09:01:16;2.40;;;1.40;;
54599;SDS011;40500;51.084;16.958;2023-07-31T09:03:48;2.10;;;1.30;;
54599;SDS011;40500;51.084;16.958;2023-07-31T09:06:23;4.20;;;1.40;;
54599;SDS011;40500;51.084;16.958;2023-07-31T09:08:57;3.80;;;1.40;;
54599;SDS011;40500;51.084;16.958;2023-07-31T09:11:27;1.50;;;1.30;;
54599;SDS011;40500;51.084;16.958;2023-07-31T09:13:58;4.10;;;1.20;;
54599;SDS011;40500;51.084;16.958;2023-07-31T09:16:36;6.30;;;1.60;;
54599;SDS011;40500;51.084;16.958;2023-07-31T09:19:27;1.60;;;1.40;;
54599;SDS011;40500;51.084;16.958;2023-07-31T09:21:59;4.80;;;1.50;;
54599;SDS011;40500;51.084;16.958;2023-07-31T09:24:31;2.70;;;1.50;;
54599;SDS011;40500;51.084;16.958;2023-07-31T09:27:02;4.40;;;1.70;;
54599;SDS011;40500;51.084;16.958;2023-07-31T09:29:36;3.70;;;1.30;;
54599;SDS011;40500;51.084;16.958;2023-07-31T09:32:07;4.50;;;1.50;;
54599;SDS011;40500;51.084;16.958;2023-07-31T09:34:46;2.80;;;1.30;;
54599;SDS011;40500;51.084;16.958;2023-07-31T09:37:31;2.70;;;1.10;;
54599;SDS011;40500;51.084;16.958;2023-07-31T09:40:07;3.20;;;1.30;;
54599;SDS011;40500;51.084;16.958;2023-07-31T09:42:53;3.90;;;1.50;;
54599;SDS011;40500;51.084;16.958;2023-07-31T09:45:25;3.20;;;1.20;;
54599;SDS011;40500;51.084;16.958;2023-07-31T09:48:08;3.80;;;1.40;;
54599;SDS011;40500;51.084;16.958;2023-07-31T09:50:42;1.30;;;1.00;;
54599;SDS011;40500;51.084;16.958;2023-07-31T09:53:15;2.20;;;1.00;;
54599;SDS011;40500;51.084;16.958;2023-07-31T09:55:47;1.60;;;0.70;;
54599;SDS011;40500;51.084;16.958;2023-07-31T09:58:18;4.70;;;1.00;;
54599;SDS011;40500;51.084;16.958;2023-07-31T10:00:49;1.70;;;0.90;;
54599;SDS011;40500;51.084;16.958;2023-07-31T10:03:24;1.50;;;0.60;;
54599;SDS011;40500;51.084;16.958;2023-07-31T10:05:56;4.40;;;1.40;;
54599;SDS011;40500;51.084;16.958;2023-07-31T10:08:30;1.50;;;0.90;;
54599;SDS011;40500;51.084;16.958;2023-07-31T10:11:04;2.80;;;0.70;;
54599;SDS011;40500;51.084;16.958;2023-07-31T10:13:36;1.30;;;0.70;;
54599;SDS011;40500;51.084;16.958;2023-07-31T10:16:08;7.00;;;1.10;;
54599;SDS011;40500;51.084;16.958;2023-07-31T10:18:39;5.00;;;1.10;;
54599;SDS011;40500;51.084;16.958;2023-07-31T10:21:10;3.90;;;0.90;;
54599;SDS011;40500;51.084;16.958;2023-07-31T10:23:42;4.30;;;1.00;;
54599;SDS011;40500;51.084;16.958;2023-07-31T10:26:14;1.80;;;0.90;;
54599;SDS011;40500;51.084;16.958;2023-07-31T10:28:45;4.00;;;0.90;;
54599;SDS011;40500;51.084;16.958;2023-07-31T10:31:17;2.30;;;1.00;;
54599;SDS011;40500;51.084;16.958;2023-07-31T10:33:52;3.20;;;0.90;;
54599;SDS011;40500;51.084;16.958;2023-07-31T10:36:24;4.40;;;0.90;;
54599;SDS011;40500;51.084;16.958;2023-07-31T10:38:56;1.90;;;0.90;;
54599;SDS011;40500;51.084;16.958;2023-07-31T10:41:30;2.20;;;0.70;;
54599;SDS011;40500;51.084;16.958;2023-07-31T10:44:01;2.80;;;0.90;;
54599;SDS011;40500;51.084;16.958;2023-07-31T10:46:33;4.10;;;1.10;;
54599;SDS011;40500;51.084;16.958;2023-07-31T10:49:06;4.40;;;1.10;;
54599;SDS011;40500;51.084;16.958;2023-07-31T10:51:36;2.90;;;0.80;;
54599;SDS011;40500;51.084;16.958;2023-07-31T10:54:12;1.00;;;0.70;;
54599;SDS011;40500;51.084;16.958;2023-07-31T10:56:45;3.50;;;1.00;;
54599;SDS011;40500;51.084;16.958;2023-07-31T10:59:20;3.40;;;1.10;;
54599;SDS011;40500;51.084;16.958;2023-07-31T11:02:03;2.10;;;1.10;;
54599;SDS011;40500;51.084;16.958;2023-07-31T11:04:33;1.80;;;1.20;;
54599;SDS011;40500;51.084;16.958;2023-07-31T11:07:04;1.90;;;0.90;;
54599;SDS011;40500;51.084;16.958;2023-07-31T11:09:40;3.40;;;0.90;;
54599;SDS011;40500;51.084;16.958;2023-07-31T11:12:10;5.10;;;1.20;;
54599;SDS011;40500;51.084;16.958;2023-07-31T11:14:40;3.10;;;1.10;;
54599;SDS011;40500;51.084;16.958;2023-07-31T11:17:11;1.00;;;0.90;;
54599;SDS011;40500;51.084;16.958;2023-07-31T11:19:42;1.00;;;0.80;;
54599;SDS011;40500;51.084;16.958;2023-07-31T11:22:12;3.60;;;1.10;;
54599;SDS011;40500;51.084;16.958;2023-07-31T11:24:43;2.50;;;1.40;;
54599;SDS011;40500;51.084;16.958;2023-07-31T11:27:14;3.30;;;1.00;;
54599;SDS011;40500;51.084;16.958;2023-07-31T11:29:44;2.10;;;1.20;;
54599;SDS011;40500;51.084;16.958;2023-07-31T11:32:17;4.10;;;1.10;;
54599;SDS011;40500;51.084;16.958;2023-07-31T11:34:53;1.00;;;0.90;;
54599;SDS011;40500;51.084;16.958;2023-07-31T11:37:24;3.50;;;1.30;;
54599;SDS011;40500;51.084;16.958;2023-07-31T11:40:10;3.30;;;1.50;;
54599;SDS011;40500;51.084;16.958;2023-07-31T11:42:41;1.30;;;1.00;;
54599;SDS011;40500;51.084;16.958;2023-07-31T11:45:11;2.80;;;1.10;;
54599;SDS011;40500;51.084;16.958;2023-07-31T11:47:42;3.50;;;1.10;;
54599;SDS011;40500;51.084;16.958;2023-07-31T11:50:14;3.20;;;1.10;;
54599;SDS011;40500;51.084;16.958;2023-07-31T11:52:45;1.70;;;1.20;;
54599;SDS011;40500;51.084;16.958;2023-07-31T11:55:18;2.90;;;1.50;;
54599;SDS011;40500;51.084;16.958;2023-07-31T11:57:49;4.70;;;1.10;;
54599;SDS011;40500;51.084;16.958;2023-07-31T12:00:21;2.30;;;1.20;;
54599;SDS011;40500;51.084;16.958;2023-07-31T12:02:52;2.80;;;1.80;;
54599;SDS011;40500;51.084;16.958;2023-07-31T12:05:23;4.00;;;1.40;;
54599;SDS011;40500;51.084;16.958;2023-07-31T12:07:55;1.60;;;1.00;;
54599;SDS011;40500;51.084;16.958;2023-07-31T12:10:27;2.90;;;1.40;;
54599;SDS011;40500;51.084;16.958;2023-07-31T12:13:02;10.20;;;1.30;;
54599;SDS011;40500;51.084;16.958;2023-07-31T12:15:35;2.60;;;1.30;;
54599;SDS011;40500;51.084;16.958;2023-07-31T12:18:11;3.40;;;1.20;;
54599;SDS011;40500;51.084;16.958;2023-07-31T12:20:44;1.50;;;1.10;;
54599;SDS011;40500;51.084;16.958;2023-07-31T12:23:17;2.10;;;1.20;;
54599;SDS011;40500;51.084;16.958;2023-07-31T12:26:01;2.70;;;1.00;;
54599;SDS011;40500;51.084;16.958;2023-07-31T12:28:36;2.70;;;1.30;;
54599;SDS011;40500;51.084;16.958;2023-07-31T12:31:09;1.10;;;1.00;;
54599;SDS011;40500;51.084;16.958;2023-07-31T12:33:41;1.30;;;1.10;;
54599;SDS011;40500;51.084;16.958;2023-07-31T12:36:12;2.60;;;1.10;;
54599;SDS011;40500;51.084;16.958;2023-07-31T12:38:45;2.00;;;1.20;;
54599;SDS011;40500;51.084;16.958;2023-07-31T12:41:15;2.50;;;1.30;;
54599;SDS011;40500;51.084;16.958;2023-07-31T12:43:47;1.80;;;1.10;;
54599;SDS011;40500;51.084;16.958;2023-07-31T12:46:18;2.50;;;1.40;;
54599;SDS011;40500;51.084;16.958;2023-07-31T12:48:48;1.60;;;1.20;;
54599;SDS011;40500;51.084;16.958;2023-07-31T12:51:19;5.00;;;1.50;;
54599;SDS011;40500;51.084;16.958;2023-07-31T12:53:49;6.20;;;1.90;;
54599;SDS011;40500;51.084;16.958;2023-07-31T12:56:20;7.60;;;1.80;;
54599;SDS011;40500;51.084;16.958;2023-07-31T12:58:51;8.00;;;1.60;;
54599;SDS011;40500;51.084;16.958;2023-07-31T13:01:21;3.00;;;1.30;;
54599;SDS011;40500;51.084;16.958;2023-07-31T13:03:52;1.80;;;1.70;;
54599;SDS011;40500;51.084;16.958;2023-07-31T13:06:22;3.50;;;1.50;;
54599;SDS011;40500;51.084;16.958;2023-07-31T13:08:53;2.60;;;1.40;;
54599;SDS011;40500;51.084;16.958;2023-07-31T13:11:24;1.70;;;1.20;;
54599;SDS011;40500;51.084;16.958;2023-07-31T13:13:54;2.70;;;1.30;;
54599;SDS011;40500;51.084;16.958;2023-07-31T13:16:24;1.40;;;1.30;;
54599;SDS011;40500;51.084;16.958;2023-07-31T13:18:55;2.30;;;1.50;;
54599;SDS011;40500;51.084;16.958;2023-07-31T13:21:28;1.70;;;1.40;;
54599;SDS011;40500;51.084;16.958;2023-07-31T13:23:59;4.10;;;1.40;;
54599;SDS011;40500;51.084;16.958;2023-07-31T13:26:29;2.70;;;1.80;;
54599;SDS011;40500;51.084;16.958;2023-07-31T13:28:59;4.60;;;1.50;;
54599;SDS011;40500;51.084;16.958;2023-07-31T13:31:33;3.00;;;1.40;;
54599;SDS011;40500;51.084;16.958;2023-07-31T13:34:03;2.70;;;1.40;;
54599;SDS011;40500;51.084;16.958;2023-07-31T13:36:34;2.80;;;1.60;;
54599;SDS011;40500;51.084;16.958;2023-07-31T13:39:05;3.80;;;1.40;;
54599;SDS011;40500;51.084;16.958;2023-07-31T13:41:36;2.30;;;1.80;;
54599;SDS011;40500;51.084;16.958;2023-07-31T13:44:06;1.40;;;1.30;;
54599;SDS011;40500;51.084;16.958;2023-07-31T13:46:37;2.50;;;1.30;;
54599;SDS011;40500;51.084;16.958;2023-07-31T13:49:07;3.00;;;1.50;;
54599;SDS011;40500;51.084;16.958;2023-07-31T13:51:38;2.40;;;1.50;;
54599;SDS011;40500;51.084;16.958;2023-07-31T13:54:09;2.70;;;1.20;;
54599;SDS011;40500;51.084;16.958;2023-07-31T13:56:41;5.20;;;1.40;;
54599;SDS011;40500;51.084;16.958;2023-07-31T13:59:11;1.60;;;1.40;;
54599;SDS011;40500;51.084;16.958;2023-07-31T14:01:43;2.20;;;1.50;;
54599;SDS011;40500;51.084;16.958;2023-07-31T14:04:13;2.00;;;1.50;;
54599;SDS011;40500;51.084;16.958;2023-07-31T14:06:45;2.80;;;1.60;;
54599;SDS011;40500;51.084;16.958;2023-07-31T14:09:18;1.40;;;1.30;;
54599;SDS011;40500;51.084;16.958;2023-07-31T14:11:48;3.30;;;1.80;;
54599;SDS011;40500;51.084;16.958;2023-07-31T14:14:19;1.40;;;1.20;;
54599;SDS011;40500;51.084;16.958;2023-07-31T14:16:49;2.20;;;1.60;;
54599;SDS011;40500;51.084;16.958;2023-07-31T14:19:20;2.40;;;1.30;;
54599;SDS011;40500;51.084;16.958;2023-07-31T14:21:52;2.30;;;1.70;;
54599;SDS011;40500;51.084;16.958;2023-07-31T14:24:37;1.60;;;1.10;;
54599;SDS011;40500;51.084;16.958;2023-07-31T14:27:08;1.80;;;1.40;;
54599;SDS011;40500;51.084;16.958;2023-07-31T14:29:41;3.40;;;1.40;;
54599;SDS011;40500;51.084;16.958;2023-07-31T14:32:11;1.40;;;1.30;;
54599;SDS011;40500;51.084;16.958;2023-07-31T14:34:42;5.60;;;1.30;;
54599;SDS011;40500;51.084;16.958;2023-07-31T14:37:12;2.80;;;1.50;;
54599;SDS011;40500;51.084;16.958;2023-07-31T14:39:43;1.30;;;1.20;;
54599;SDS011;40500;51.084;16.958;2023-07-31T14:42:13;1.70;;;1.30;;
54599;SDS011;40500;51.084;16.958;2023-07-31T14:44:44;1.40;;;1.20;;
54599;SDS011;40500;51.084;16.958;2023-07-31T14:47:15;1.30;;;1.10;;
54599;SDS011;40500;51.084;16.958;2023-07-31T14:49:45;3.00;;;1.80;;
54599;SDS011;40500;51.084;16.958;2023-07-31T14:52:16;2.00;;;1.30;;
54599;SDS011;40500;51.084;16.958;2023-07-31T14:54:46;4.20;;;1.60;;
54599;SDS011;40500;51.084;16.958;2023-07-31T14:57:17;2.50;;;1.60;;
54599;SDS011;40500;51.084;16.958;2023-07-31T14:59:47;1.90;;;1.50;;
54599;SDS011;40500;51.084;16.958;2023-07-31T15:02:18;2.10;;;1.40;;
54599;SDS011;40500;51.084;16.958;2023-07-31T15:04:48;3.40;;;1.40;;
54599;SDS011;40500;51.084;16.958;2023-07-31T15:07:19;2.00;;;1.60;;
54599;SDS011;40500;51.084;16.958;2023-07-31T15:09:49;3.40;;;1.10;;
54599;SDS011;40500;51.084;16.958;2023-07-31T15:12:19;2.00;;;1.40;;
54599;SDS011;40500;51.084;16.958;2023-07-31T15:14:50;4.50;;;1.30;;
54599;SDS011;40500;51.084;16.958;2023-07-31T15:17:21;2.80;;;1.30;;
54599;SDS011;40500;51.084;16.958;2023-07-31T15:19:52;1.40;;;1.30;;
54599;SDS011;40500;51.084;16.958;2023-07-31T15:22:22;2.10;;;1.40;;
54599;SDS011;40500;51.084;16.958;2023-07-31T15:24:53;1.60;;;1.40;;
54599;SDS011;40500;51.084;16.958;2023-07-31T15:27:23;2.10;;;1.30;;